createdAt,value
2023-02-17T00:00:36.460Z,8
2023-02-17T00:01:34.753Z,8.020
2023-02-17T00:02:39.799Z,8
2023-02-17T00:03:34.098Z,8
2023-02-17T00:04:33.350Z,8
2023-02-17T00:05:33.589Z,8
2023-02-17T00:06:33.951Z,8
2023-02-17T00:07:34.190Z,8
2023-02-17T00:08:33.277Z,8.010
2023-02-17T00:09:33.062Z,8
2023-02-17T00:10:33.630Z,8.010
2023-02-17T00:11:32.859Z,8.031
2023-02-17T00:12:32.822Z,8.020
2023-02-17T00:13:33.672Z,8.041
2023-02-17T00:14:33.912Z,8.051
2023-02-17T00:15:34.017Z,8.051
2023-02-17T00:16:33.081Z,8.062
2023-02-17T00:17:32.807Z,8.051
2023-02-17T00:18:47.463Z,8.062
2023-02-17T00:19:33.222Z,8.062
2023-02-17T00:20:33.735Z,8.062
2023-02-17T00:21:33.478Z,8.062
2023-02-17T00:22:47.595Z,8.062
2023-02-17T00:23:33.670Z,8.051
2023-02-17T00:24:34.154Z,8.062
2023-02-17T00:25:34.733Z,8.062
2023-02-17T00:26:34.188Z,8.062
2023-02-17T00:27:32.987Z,8.062
2023-02-17T00:28:33.297Z,8.062
2023-02-17T00:29:33.516Z,8.062
2023-02-17T00:30:33.984Z,8.062
2023-02-17T00:31:34.047Z,8.062
2023-02-17T00:32:33.467Z,8.062
2023-02-17T00:33:34.888Z,8.062
2023-02-17T00:34:33.519Z,8.062
2023-02-17T00:35:33.943Z,8.062
2023-02-17T00:36:33.594Z,8.062
2023-02-17T00:37:34.079Z,8.062
2023-02-17T00:38:34.279Z,8.062
2023-02-17T00:39:33.279Z,8.062
2023-02-17T00:40:34.266Z,8.062
2023-02-17T00:41:33.946Z,8.062
2023-02-17T00:42:33.877Z,8.062
2023-02-17T00:43:33.640Z,8.062
2023-02-17T00:44:34.351Z,8.062
2023-02-17T00:45:34.167Z,8.062
2023-02-17T00:46:33.839Z,8.062
2023-02-17T00:47:33.850Z,8.062
2023-02-17T00:48:33.722Z,8.062
2023-02-17T00:49:33.779Z,8.062
2023-02-17T00:50:35.533Z,8.062
2023-02-17T00:51:34.097Z,8.062
2023-02-17T00:52:34.462Z,8.062
2023-02-17T00:53:34.270Z,8.062
2023-02-17T00:54:33.985Z,8.062
2023-02-17T00:55:33.195Z,8.062
2023-02-17T00:56:33.893Z,8.062
2023-02-17T00:57:33.774Z,8.062
2023-02-17T00:58:34.793Z,8.062
2023-02-17T00:59:33.679Z,8.062
2023-02-17T01:00:36.500Z,8.071
2023-02-17T01:01:39.374Z,8.062
2023-02-17T01:02:34.120Z,8.062
2023-02-17T01:03:34.568Z,8.112
2023-02-17T01:04:33.679Z,8.125
2023-02-17T01:05:33.814Z,8.125
2023-02-17T01:06:34.294Z,8.125
2023-02-17T01:07:33.867Z,8.125
2023-02-17T01:08:34.865Z,8.125
2023-02-17T01:09:34.165Z,8.125
2023-02-17T01:10:34.739Z,8.125
2023-02-17T01:11:34.408Z,8.125
2023-02-17T01:12:33.501Z,8.125
2023-02-17T01:13:33.720Z,8.114
2023-02-17T01:14:34.479Z,8.125
2023-02-17T01:15:34.440Z,8.125
2023-02-17T01:16:33.937Z,8.125
2023-02-17T01:17:33.865Z,8.125
2023-02-17T01:18:35.219Z,8.125
2023-02-17T01:19:34.386Z,8.125
2023-02-17T01:20:34.498Z,8.125
2023-02-17T01:21:33.855Z,8.125
2023-02-17T01:22:34.375Z,8.125
2023-02-17T01:23:34.169Z,8.125
2023-02-17T01:24:33.181Z,8.125
2023-02-17T01:25:34.125Z,8.125
2023-02-17T01:26:33.915Z,8.125
2023-02-17T01:27:33.935Z,8.125
2023-02-17T01:28:35.657Z,8.125
2023-02-17T01:29:34.528Z,8.125
2023-02-17T01:30:35.427Z,8.125
2023-02-17T01:31:35.492Z,8.125
2023-02-17T01:32:34.517Z,8.125
2023-02-17T01:33:33.370Z,8.125
2023-02-17T01:34:34.529Z,8.125
2023-02-17T01:35:33.945Z,8.125
2023-02-17T01:36:35.021Z,8.125
2023-02-17T01:37:33.127Z,8.125
2023-02-17T01:38:34.794Z,8.156
2023-02-17T01:39:35.155Z,8.187
2023-02-17T01:40:34.334Z,8.176
2023-02-17T01:41:33.469Z,8.145
2023-02-17T01:42:34.239Z,8.166
2023-02-17T01:43:34.300Z,8.166
2023-02-17T01:44:33.261Z,8.187
2023-02-17T01:45:34.198Z,8.187
2023-02-17T01:46:34.403Z,8.187
2023-02-17T01:47:34.527Z,8.187
2023-02-17T01:48:34.037Z,8.187
2023-02-17T01:49:33.783Z,8.187
2023-02-17T01:50:34.446Z,8.187
2023-02-17T01:51:33.808Z,8.187
2023-02-17T01:52:33.583Z,8.187
2023-02-17T01:53:33.443Z,8.187
2023-02-17T01:54:33.401Z,8.187
2023-02-17T01:55:33.581Z,8.187
2023-02-17T01:56:33.514Z,8.187
2023-02-17T01:57:33.914Z,8.187
2023-02-17T01:58:34.329Z,8.187
2023-02-17T01:59:33.454Z,8.197
2023-02-17T02:00:35.918Z,8.187
2023-02-17T02:01:34.688Z,8.187
2023-02-17T02:02:33.958Z,8.187
2023-02-17T02:03:33.516Z,8.187
2023-02-17T02:04:33.786Z,8.187
2023-02-17T02:05:35.960Z,8.187
2023-02-17T02:06:33.401Z,8.187
2023-02-17T02:07:32.876Z,8.187
2023-02-17T02:08:33.664Z,8.187
2023-02-17T02:09:33.480Z,8.197
2023-02-17T02:10:34.153Z,8.208
2023-02-17T02:11:33.235Z,8.25
2023-02-17T02:12:33.434Z,8.25
2023-02-17T02:13:34.184Z,8.25
2023-02-17T02:14:33.518Z,8.25
2023-02-17T02:15:33.839Z,8.25
2023-02-17T02:16:34.104Z,8.270
2023-02-17T02:17:33.521Z,8.260
2023-02-17T02:18:33.179Z,8.25
2023-02-17T02:19:33.156Z,8.25
2023-02-17T02:20:33.786Z,8.291
2023-02-17T02:21:33.846Z,8.25
2023-02-17T02:22:34.208Z,8.25
2023-02-17T02:23:33.755Z,8.25
2023-02-17T02:24:33.934Z,8.25
2023-02-17T02:25:34.394Z,8.25
2023-02-17T02:26:34.405Z,8.281
2023-02-17T02:27:33.931Z,8.274
2023-02-17T02:28:35.046Z,8.303
2023-02-17T02:29:33.353Z,8.312
2023-02-17T02:30:34.516Z,8.312
2023-02-17T02:31:33.423Z,8.312
2023-02-17T02:32:33.118Z,8.276
2023-02-17T02:33:33.169Z,8.312
2023-02-17T02:34:32.823Z,8.294
2023-02-17T02:35:33.760Z,8.312
2023-02-17T02:36:33.214Z,8.312
2023-02-17T02:37:32.466Z,8.312
2023-02-17T02:38:32.595Z,8.312
2023-02-17T02:39:32.972Z,8.312
2023-02-17T02:40:33.505Z,8.312
2023-02-17T02:41:32.905Z,8.312
2023-02-17T02:42:33.401Z,8.312
2023-02-17T02:43:32.946Z,8.312
2023-02-17T02:44:32.983Z,8.312
2023-02-17T02:45:33.362Z,8.312
2023-02-17T02:46:33.449Z,8.312
2023-02-17T02:47:32.626Z,8.312
2023-02-17T02:48:32.983Z,8.301
2023-02-17T02:49:32.610Z,8.299
2023-02-17T02:50:33.249Z,8.270
2023-02-17T02:51:32.908Z,8.301
2023-02-17T02:52:32.859Z,8.312
2023-02-17T02:53:33.231Z,8.312
2023-02-17T02:54:33.209Z,8.312
2023-02-17T02:55:33.234Z,8.312
2023-02-17T02:56:33.390Z,8.312
2023-02-17T02:57:33.006Z,8.354
2023-02-17T02:58:33.019Z,8.375
2023-02-17T02:59:32.629Z,8.364
2023-02-17T03:00:34.896Z,8.312
2023-02-17T03:01:33.743Z,8.322
2023-02-17T03:02:32.575Z,8.312
2023-02-17T03:03:33.444Z,8.312
2023-02-17T03:04:33.131Z,8.312
2023-02-17T03:05:33.017Z,8.333
2023-02-17T03:06:33.289Z,8.354
2023-02-17T03:07:32.744Z,8.322
2023-02-17T03:08:33.020Z,8.364
2023-02-17T03:09:32.924Z,8.375
2023-02-17T03:10:34.378Z,8.354
2023-02-17T03:11:33.949Z,8.354
2023-02-17T03:12:33.986Z,8.375
2023-02-17T03:13:33.317Z,8.375
2023-02-17T03:14:32.825Z,8.375
2023-02-17T03:15:33.360Z,8.406
2023-02-17T03:16:32.383Z,8.406
2023-02-17T03:17:33.598Z,8.375
2023-02-17T03:18:33.644Z,8.375
2023-02-17T03:19:32.876Z,8.375
2023-02-17T03:20:34.032Z,8.375
2023-02-17T03:21:32.641Z,8.385
2023-02-17T03:22:33.655Z,8.406
2023-02-17T03:23:33.155Z,8.437
2023-02-17T03:24:32.918Z,8.395
2023-02-17T03:25:33.669Z,8.375
2023-02-17T03:26:33.286Z,8.375
2023-02-17T03:27:32.645Z,8.375
2023-02-17T03:28:33.370Z,8.375
2023-02-17T03:29:32.847Z,8.375
2023-02-17T03:30:33.170Z,8.375
2023-02-17T03:31:33.144Z,8.375
2023-02-17T03:32:32.847Z,8.375
2023-02-17T03:33:32.844Z,8.375
2023-02-17T03:34:33.715Z,8.343
2023-02-17T03:35:33.256Z,8.375
2023-02-17T03:36:32.635Z,8.375
2023-02-17T03:37:32.762Z,8.375
2023-02-17T03:38:33.129Z,8.375
2023-02-17T03:39:32.738Z,8.375
2023-02-17T03:40:33.039Z,8.375
2023-02-17T03:41:33.262Z,8.375
2023-02-17T03:42:32.330Z,8.364
2023-02-17T03:44:00.443Z,8.375
2023-02-17T03:44:33.104Z,8.375
2023-02-17T03:45:33.357Z,8.375
2023-02-17T03:46:33.189Z,8.375
2023-02-17T03:47:32.570Z,8.375
2023-02-17T03:48:33.516Z,8.333
2023-02-17T03:49:32.876Z,8.343
2023-02-17T03:50:33.372Z,8.354
2023-02-17T03:51:32.133Z,8.343
2023-02-17T03:52:32.524Z,8.375
2023-02-17T03:53:32.622Z,8.375
2023-02-17T03:54:32.243Z,8.375
2023-02-17T03:55:33.526Z,8.375
2023-02-17T03:56:33.166Z,8.375
2023-02-17T03:57:32.526Z,8.375
2023-02-17T03:58:32.984Z,8.375
2023-02-17T03:59:32.633Z,8.375
2023-02-17T04:00:35.048Z,8.375
2023-02-17T04:01:33.461Z,8.375
2023-02-17T04:02:33.192Z,8.375
2023-02-17T04:03:33.050Z,8.375
2023-02-17T04:04:33.098Z,8.375
2023-02-17T04:05:33.320Z,8.375
2023-02-17T04:06:33.320Z,8.375
2023-02-17T04:07:34.302Z,8.375
2023-02-17T04:08:34.076Z,8.375
2023-02-17T04:09:33.733Z,8.375
2023-02-17T04:10:35.130Z,8.375
2023-02-17T04:11:33.487Z,8.375
2023-02-17T04:12:33.133Z,8.375
2023-02-17T04:13:32.866Z,8.375
2023-02-17T04:14:34.176Z,8.410
2023-02-17T04:15:35.136Z,8.375
2023-02-17T04:16:35.209Z,8.375
2023-02-17T04:17:34.728Z,8.385
2023-02-17T04:18:34.473Z,8.395
2023-02-17T04:19:33.949Z,8.395
2023-02-17T04:20:33.708Z,8.401
2023-02-17T04:21:32.874Z,8.412
2023-02-17T04:22:33.833Z,8.375
2023-02-17T04:23:34.960Z,8.375
2023-02-17T04:24:33.741Z,8.401
2023-02-17T04:25:34.878Z,8.412
2023-02-17T04:26:34.778Z,8.419
2023-02-17T04:27:33.427Z,8.375
2023-02-17T04:28:33.426Z,8.385
2023-02-17T04:29:32.911Z,8.416
2023-02-17T04:30:34.291Z,8.406
2023-02-17T04:31:33.286Z,8.416
2023-02-17T04:32:32.578Z,8.385
2023-02-17T04:33:32.930Z,8.385
2023-02-17T04:34:33.373Z,8.375
2023-02-17T04:35:33.970Z,8.385
2023-02-17T04:36:33.511Z,8.375
2023-02-17T04:37:32.685Z,8.375
2023-02-17T04:38:33.012Z,8.375
2023-02-17T04:39:32.852Z,8.375
2023-02-17T04:40:32.742Z,8.375
2023-02-17T04:41:32.825Z,8.375
2023-02-17T04:42:32.737Z,8.375
2023-02-17T04:43:32.590Z,8.375
2023-02-17T04:44:32.422Z,8.385
2023-02-17T04:45:32.860Z,8.416
2023-02-17T04:46:33.394Z,8.385
2023-02-17T04:47:33.214Z,8.437
2023-02-17T04:48:32.963Z,8.406
2023-02-17T04:49:33.181Z,8.375
2023-02-17T04:50:33.478Z,8.375
2023-02-17T04:51:33.043Z,8.375
2023-02-17T04:52:34.155Z,8.375
2023-02-17T04:53:33.487Z,8.375
2023-02-17T04:54:34.067Z,8.375
2023-02-17T04:55:33.540Z,8.375
2023-02-17T04:56:33.358Z,8.406
2023-02-17T04:57:32.987Z,6.900
2023-02-17T04:58:33.255Z,8.385
2023-02-17T04:59:32.711Z,8.375
2023-02-17T05:00:35.660Z,8.375
2023-02-17T05:01:33.683Z,8.375
2023-02-17T05:02:33.471Z,8.375
2023-02-17T05:03:33.015Z,8.375
2023-02-17T05:04:33.031Z,8.395
2023-02-17T05:05:32.634Z,8.426
2023-02-17T05:06:41.137Z,8.416
2023-02-17T05:07:33.027Z,8.406
2023-02-17T05:08:33.102Z,8.385
2023-02-17T05:09:32.685Z,8.406
2023-02-17T05:10:36.377Z,8.375
2023-02-17T05:12:47.830Z,8.375
2023-02-17T05:13:32.329Z,8.375
2023-02-17T05:14:33.078Z,8.375
2023-02-17T05:15:34.850Z,8.375
2023-02-17T05:16:33.131Z,8.406
2023-02-17T05:17:33.591Z,8.395
2023-02-17T05:18:33.595Z,8.385
2023-02-17T05:19:33.390Z,8.375
2023-02-17T05:20:33.603Z,8.385
2023-02-17T05:21:33.703Z,8.437
2023-02-17T05:22:33.110Z,8.437
2023-02-17T05:23:32.800Z,8.437
2023-02-17T05:24:33.059Z,8.437
2023-02-17T05:25:33.414Z,8.437
2023-02-17T05:26:33.179Z,8.437
2023-02-17T05:27:33.169Z,8.437
2023-02-17T05:28:33.128Z,8.437
2023-02-17T05:29:32.444Z,8.437
2023-02-17T05:30:33.970Z,8.437
2023-02-17T05:31:33.640Z,8.437
2023-02-17T05:32:33.317Z,8.437
2023-02-17T05:33:33.133Z,8.437
2023-02-17T05:34:32.920Z,8.437
2023-02-17T05:35:35.028Z,8.437
2023-02-17T05:36:32.900Z,8.437
2023-02-17T05:37:33.200Z,8.437
2023-02-17T05:38:32.765Z,8.437
2023-02-17T05:39:33.479Z,8.437
2023-02-17T05:40:33.947Z,8.437
2023-02-17T05:41:33.278Z,8.437
2023-02-17T05:42:32.802Z,8.437
2023-02-17T05:43:32.976Z,8.437
2023-02-17T05:44:33.451Z,8.437
2023-02-17T05:45:33.580Z,8.437
2023-02-17T05:46:33.270Z,8.437
2023-02-17T05:47:32.888Z,8.437
2023-02-17T05:48:32.957Z,8.437
2023-02-17T05:49:33.479Z,8.437
2023-02-17T05:50:34.169Z,8.437
2023-02-17T05:51:32.925Z,8.437
2023-02-17T05:52:33.488Z,8.489
2023-02-17T05:53:33.678Z,8.5
2023-02-17T05:54:33.446Z,8.5
2023-02-17T05:55:33.803Z,8.5
2023-02-17T05:56:33.203Z,8.5
2023-02-17T05:57:33.073Z,8.5
2023-02-17T05:58:32.838Z,8.5
2023-02-17T05:59:34.075Z,8.5
2023-02-17T06:00:34.341Z,8.5
2023-02-17T06:01:34.425Z,8.5
2023-02-17T06:02:33.211Z,8.5
2023-02-17T06:03:33.275Z,8.5
2023-02-17T06:04:32.908Z,8.5
2023-02-17T06:05:33.416Z,8.5
2023-02-17T06:06:33.973Z,8.489
2023-02-17T06:07:33.730Z,8.489
2023-02-17T06:08:33.900Z,8.489
2023-02-17T06:09:33.700Z,8.5
2023-02-17T06:10:33.813Z,8.5
2023-02-17T06:11:35.556Z,8.5
2023-02-17T06:12:32.956Z,8.5
2023-02-17T06:13:33.623Z,8.520
2023-02-17T06:14:33.283Z,8.562
2023-02-17T06:15:34.883Z,8.562
2023-02-17T06:16:35.055Z,8.562
2023-02-17T06:17:33.537Z,8.562
2023-02-17T06:18:34.120Z,8.531
2023-02-17T06:19:32.670Z,8.5
2023-02-17T06:20:33.393Z,8.5
2023-02-17T06:21:33.668Z,8.5
2023-02-17T06:22:34.111Z,8.5
2023-02-17T06:23:32.791Z,8.5
2023-02-17T06:24:33.381Z,8.5
2023-02-17T06:25:33.247Z,8.5
2023-02-17T06:26:33.575Z,8.5
2023-02-17T06:27:33.131Z,8.5
2023-02-17T06:28:35.071Z,8.5
2023-02-17T06:29:33.264Z,8.489
2023-02-17T06:30:33.936Z,8.5
2023-02-17T06:31:34.042Z,8.5
2023-02-17T06:32:33.259Z,8.5
2023-02-17T06:33:33.567Z,8.5
2023-02-17T06:34:32.963Z,8.5
2023-02-17T06:35:33.764Z,8.5
2023-02-17T06:36:33.447Z,8.5
2023-02-17T06:37:33.237Z,8.5
2023-02-17T06:38:33.212Z,8.5
2023-02-17T06:39:32.736Z,8.5
2023-02-17T06:40:34.195Z,8.5
2023-02-17T06:41:32.827Z,8.5
2023-02-17T06:42:33.626Z,8.5
2023-02-17T06:43:33.317Z,8.5
2023-02-17T06:44:33.015Z,8.5
2023-02-17T06:45:35.014Z,8.5
2023-02-17T06:46:35.544Z,8.5
2023-02-17T06:47:34.373Z,8.5
2023-02-17T06:48:33.648Z,8.5
2023-02-17T06:49:33.672Z,8.5
2023-02-17T06:50:33.521Z,8.5
2023-02-17T06:51:33.275Z,8.5
2023-02-17T06:52:33.608Z,8.5
2023-02-17T06:53:34.274Z,8.5
2023-02-17T06:54:33.583Z,8.5
2023-02-17T06:55:34.689Z,8.5
2023-02-17T06:56:33.465Z,8.5
2023-02-17T06:57:33.026Z,8.5
2023-02-17T06:58:33.054Z,8.5
2023-02-17T06:59:33.360Z,8.5
2023-02-17T07:00:35.275Z,8.5
2023-02-17T07:01:33.547Z,8.5
2023-02-17T07:02:33.287Z,8.5
2023-02-17T07:03:33.191Z,8.5
2023-02-17T07:04:33.079Z,8.5
2023-02-17T07:05:32.765Z,8.5
2023-02-17T07:06:34.140Z,8.5
2023-02-17T07:07:33.899Z,8.5
2023-02-17T07:08:34.820Z,8.5
2023-02-17T07:09:36.937Z,8.5
2023-02-17T07:10:36.276Z,8.5
2023-02-17T07:11:35.356Z,8.5
2023-02-17T07:12:33.912Z,8.5
2023-02-17T07:13:34.037Z,8.5
2023-02-17T07:14:33.389Z,8.5
2023-02-17T07:15:34.344Z,8.5
2023-02-17T07:16:33.626Z,8.5
2023-02-17T07:17:33.538Z,8.5
2023-02-17T07:18:34.078Z,8.5
2023-02-17T07:19:33.974Z,8.5
2023-02-17T07:20:34.512Z,8.5
2023-02-17T07:21:34.390Z,8.5
2023-02-17T07:22:33.621Z,8.517
2023-02-17T07:23:34.107Z,8.5
2023-02-17T07:24:34.074Z,8.5
2023-02-17T07:25:39.487Z,8.512
2023-02-17T07:26:34.507Z,8.520
2023-02-17T07:27:34.307Z,8.541
2023-02-17T07:28:34.260Z,8.553
2023-02-17T07:29:33.825Z,8.562
2023-02-17T07:30:34.484Z,8.562
2023-02-17T07:31:34.833Z,8.562
2023-02-17T07:32:34.881Z,8.562
2023-02-17T07:33:43.430Z,8.562
2023-02-17T07:34:34.712Z,8.562
2023-02-17T07:35:34.572Z,8.562
2023-02-17T07:36:34.421Z,8.562
2023-02-17T07:37:34.339Z,8.551
2023-02-17T07:38:34.129Z,8.562
2023-02-17T07:39:34.404Z,8.562
2023-02-17T07:40:35.179Z,8.562
2023-02-17T07:41:33.752Z,8.562
2023-02-17T07:43:34.224Z,8.562
2023-02-17T07:44:34.517Z,8.562
2023-02-17T07:45:48.864Z,8.562
2023-02-17T07:46:34.554Z,8.562
2023-02-17T07:47:39.432Z,8.562
2023-02-17T07:48:34.895Z,8.562
2023-02-17T07:49:34.647Z,8.562
2023-02-17T07:50:33.915Z,8.562
2023-02-17T07:51:34.497Z,8.562
2023-02-17T07:52:34.038Z,8.562
2023-02-17T07:53:34.036Z,8.562
2023-02-17T07:54:34.564Z,8.562
2023-02-17T07:55:54.558Z,8.562
2023-02-17T07:56:34.481Z,8.562
2023-02-17T07:57:39.755Z,8.562
2023-02-17T07:58:35.426Z,8.562
2023-02-17T07:59:34.126Z,8.562
2023-02-17T08:00:36.143Z,8.562
2023-02-17T08:01:35.385Z,8.562
2023-02-17T08:02:34.668Z,8.562
2023-02-17T08:03:34.771Z,8.562
2023-02-17T08:04:34.875Z,8.562
2023-02-17T08:05:36.440Z,8.562
2023-02-17T08:06:34.343Z,8.572
2023-02-17T08:07:48.100Z,8.562
2023-02-17T08:08:33.959Z,8.562
2023-02-17T08:09:34.790Z,8.562
2023-02-17T08:10:34.509Z,8.572
2023-02-17T08:11:35.142Z,8.572
2023-02-17T08:12:34.636Z,8.614
2023-02-17T08:13:34.210Z,8.593
2023-02-17T08:14:34.413Z,8.583
2023-02-17T08:15:37.307Z,8.625
2023-02-17T08:16:34.778Z,8.625
2023-02-17T08:17:35.235Z,8.625
2023-02-17T08:18:36.434Z,8.625
2023-02-17T08:19:47.412Z,8.625
2023-02-17T08:20:35.558Z,8.625
2023-02-17T08:21:34.113Z,8.625
2023-02-17T08:22:33.892Z,8.625
2023-02-17T08:23:34.820Z,8.625
2023-02-17T08:24:34.065Z,8.625
2023-02-17T08:25:34.812Z,8.625
2023-02-17T08:26:34.718Z,8.625
2023-02-17T08:27:34.339Z,8.625
2023-02-17T08:28:34.252Z,8.625
2023-02-17T08:29:32.910Z,8.625
2023-02-17T08:30:34.604Z,8.625
2023-02-17T08:31:33.891Z,8.625
2023-02-17T08:32:34.467Z,8.625
2023-02-17T08:33:34.197Z,8.625
2023-02-17T08:34:34.783Z,8.625
2023-02-17T08:35:35.319Z,8.625
2023-02-17T08:36:33.952Z,8.625
2023-02-17T08:37:34.136Z,8.625
2023-02-17T08:38:34.605Z,8.687
2023-02-17T08:39:34.683Z,8.676
2023-02-17T08:40:35.694Z,8.656
2023-02-17T08:41:34.920Z,8.687
2023-02-17T08:42:35.379Z,8.687
2023-02-17T08:43:35.275Z,8.687
2023-02-17T08:44:34.312Z,8.687
2023-02-17T08:45:34.814Z,8.656
2023-02-17T08:46:34.692Z,8.656
2023-02-17T08:47:34.405Z,8.674
2023-02-17T08:48:36.682Z,8.687
2023-02-17T08:49:34.099Z,8.687
2023-02-17T08:50:34.478Z,8.678
2023-02-17T08:51:34.353Z,8.687
2023-02-17T08:52:34.445Z,8.687
2023-02-17T08:53:34.545Z,8.687
2023-02-17T08:54:34.794Z,8.687
2023-02-17T08:55:47.539Z,8.687
2023-02-17T08:56:34.856Z,8.687
2023-02-17T08:57:34.432Z,8.687
2023-02-17T08:58:34.914Z,8.687
2023-02-17T08:59:34.890Z,8.687
2023-02-17T09:00:37.274Z,8.687
2023-02-17T09:01:34.852Z,8.687
2023-02-17T09:02:34.954Z,8.687
2023-02-17T09:03:35.193Z,8.687
2023-02-17T09:04:34.795Z,8.687
2023-02-17T09:05:34.910Z,8.687
2023-02-17T09:06:35.963Z,8.687
2023-02-17T09:07:34.858Z,8.687
2023-02-17T09:08:34.938Z,8.687
2023-02-17T09:09:35.367Z,8.687
2023-02-17T09:10:35.170Z,8.687
2023-02-17T09:11:34.088Z,8.687
2023-02-17T09:12:34.862Z,8.687
2023-02-17T09:13:34.969Z,8.708
2023-02-17T09:14:35.024Z,8.697
2023-02-17T09:15:34.917Z,8.729
2023-02-17T09:16:35.597Z,8.708
2023-02-17T09:17:34.521Z,8.75
2023-02-17T09:18:34.828Z,8.687
2023-02-17T09:19:34.708Z,8.729
2023-02-17T09:20:38.531Z,8.75
2023-02-17T09:21:34.853Z,7.199
2023-02-17T09:22:44.565Z,8.739
2023-02-17T09:23:34.753Z,8.75
2023-02-17T09:24:35.238Z,8.75
2023-02-17T09:25:35.013Z,8.75
2023-02-17T09:26:34.975Z,8.75
2023-02-17T09:27:34.319Z,8.75
2023-02-17T09:28:34.707Z,8.75
2023-02-17T09:29:34.732Z,8.75
2023-02-17T09:30:35.444Z,8.75
2023-02-17T09:31:34.995Z,8.75
2023-02-17T09:32:34.515Z,8.75
2023-02-17T09:33:34.304Z,8.75
2023-02-17T09:34:34.270Z,8.75
2023-02-17T09:35:34.869Z,8.75
2023-02-17T09:36:35.393Z,8.75
2023-02-17T09:37:34.654Z,8.75
2023-02-17T09:38:34.480Z,8.75
2023-02-17T09:39:35.087Z,8.75
2023-02-17T09:40:34.860Z,8.75
2023-02-17T09:41:34.638Z,8.75
2023-02-17T09:42:40.168Z,8.75
2023-02-17T09:43:35.500Z,8.75
2023-02-17T09:44:35.227Z,8.75
2023-02-17T09:45:34.687Z,8.75
2023-02-17T09:46:34.916Z,8.75
2023-02-17T09:47:34.645Z,8.75
2023-02-17T09:48:34.552Z,8.760
2023-02-17T09:49:34.458Z,8.770
2023-02-17T09:50:35.636Z,8.791
2023-02-17T09:51:35.459Z,8.812
2023-02-17T09:52:35.292Z,8.812
2023-02-17T09:54:40.533Z,8.812
2023-02-17T09:55:35.078Z,8.812
2023-02-17T09:56:35.533Z,8.812
2023-02-17T09:57:34.753Z,8.812
2023-02-17T09:58:34.602Z,8.812
2023-02-17T09:59:35.067Z,8.812
2023-02-17T10:00:36.157Z,8.812
2023-02-17T10:01:35.425Z,8.812
2023-02-17T10:02:34.718Z,8.812
2023-02-17T10:03:35.353Z,8.812
2023-02-17T10:04:35.162Z,8.812
2023-02-17T10:05:34.433Z,8.812
2023-02-17T10:06:34.992Z,8.812
2023-02-17T10:07:35.281Z,8.812
2023-02-17T10:08:34.614Z,8.812
2023-02-17T10:09:35.708Z,8.812
2023-02-17T10:10:35.318Z,8.812
2023-02-17T10:11:34.896Z,8.812
2023-02-17T10:12:35.290Z,8.822
2023-02-17T10:13:35.282Z,8.843
2023-02-17T10:14:35.388Z,8.875
2023-02-17T10:15:35.439Z,8.875
2023-02-17T10:16:34.675Z,8.875
2023-02-17T10:17:35.755Z,8.875
2023-02-17T10:18:35.244Z,8.875
2023-02-17T10:19:35.805Z,8.875
2023-02-17T10:20:35.570Z,8.875
2023-02-17T10:21:36.280Z,8.875
2023-02-17T10:22:35.011Z,8.875
2023-02-17T10:23:35.231Z,8.875
2023-02-17T10:24:34.909Z,8.875
2023-02-17T10:25:35.809Z,8.875
2023-02-17T10:26:35.115Z,8.875
2023-02-17T10:27:34.557Z,8.875
2023-02-17T10:28:34.385Z,8.875
2023-02-17T10:29:35.050Z,8.875
2023-02-17T10:30:35.027Z,8.875
2023-02-17T10:31:35.100Z,8.875
2023-02-17T10:32:34.954Z,8.875
2023-02-17T10:33:34.987Z,8.875
2023-02-17T10:34:34.496Z,8.875
2023-02-17T10:35:34.792Z,8.875
2023-02-17T10:36:34.872Z,8.883
2023-02-17T10:37:34.739Z,8.875
2023-02-17T10:38:35.756Z,8.885
2023-02-17T10:39:35.371Z,8.875
2023-02-17T10:40:35.574Z,8.906
2023-02-17T10:41:34.667Z,8.916
2023-02-17T10:42:32.803Z,8.906
2023-02-17T10:43:35.076Z,8.937
2023-02-17T10:44:34.483Z,8.937
2023-02-17T10:45:35.378Z,8.937
2023-02-17T10:46:34.655Z,8.937
2023-02-17T10:47:34.695Z,8.937
2023-02-17T10:48:34.881Z,8.937
2023-02-17T10:49:34.589Z,8.937
2023-02-17T10:50:34.963Z,8.937
2023-02-17T10:51:35.464Z,8.937
2023-02-17T10:52:34.382Z,8.937
2023-02-17T10:53:34.887Z,8.937
2023-02-17T10:54:34.585Z,8.937
2023-02-17T10:55:36.490Z,8.937
2023-02-17T10:56:34.228Z,8.937
2023-02-17T10:57:34.533Z,8.937
2023-02-17T10:58:34.614Z,8.937
2023-02-17T10:59:34.407Z,8.958
2023-02-17T11:00:36.995Z,8.937
2023-02-17T11:01:35.993Z,8.958
2023-02-17T11:02:34.632Z,8.968
2023-02-17T11:03:35.466Z,9
2023-02-17T11:04:34.352Z,9
2023-02-17T11:05:35.645Z,8.979
2023-02-17T11:06:35.542Z,8.958
2023-02-17T11:07:35.265Z,8.958
2023-02-17T11:08:35.646Z,8.979
2023-02-17T11:09:36.587Z,9
2023-02-17T11:10:37.064Z,9
2023-02-17T11:11:36.287Z,9
2023-02-17T11:12:36.204Z,9
2023-02-17T11:13:36.493Z,9
2023-02-17T11:14:36.787Z,9
2023-02-17T11:15:35.741Z,9
2023-02-17T11:16:36.110Z,9
2023-02-17T11:17:34.482Z,9
2023-02-17T11:18:35.338Z,9
2023-02-17T11:19:35.050Z,9
2023-02-17T11:20:34.784Z,9
2023-02-17T11:21:35.862Z,9
2023-02-17T11:22:35.456Z,9.041
2023-02-17T11:23:34.611Z,9
2023-02-17T11:25:35.857Z,9.010
2023-02-17T11:27:35.904Z,9.051
2023-02-17T11:28:37.017Z,9.062
2023-02-17T11:29:34.881Z,9.041
2023-02-17T11:30:36.134Z,9.020
2023-02-17T11:31:36.069Z,9.051
2023-02-17T11:32:34.994Z,9.062
2023-02-17T11:33:35.495Z,9.062
2023-02-17T11:34:35.810Z,9.062
2023-02-17T11:35:35.062Z,9.062
2023-02-17T11:36:34.564Z,9.062
2023-02-17T11:37:34.819Z,9.062
2023-02-17T11:38:35.165Z,9.062
2023-02-17T11:39:35.472Z,9.062
2023-02-17T11:40:39.991Z,9.062
2023-02-17T11:41:34.983Z,9.062
2023-02-17T11:42:35.036Z,9.062
2023-02-17T11:43:35.370Z,9.083
2023-02-17T11:44:35.778Z,9.093
2023-02-17T11:45:35.829Z,9.125
2023-02-17T11:46:36.008Z,9.104
2023-02-17T11:47:34.800Z,9.114
2023-02-17T11:48:35.098Z,9.125
2023-02-17T11:49:34.632Z,9.125
2023-02-17T11:50:52.048Z,9.125
2023-02-17T11:51:35.122Z,9.125
2023-02-17T11:52:37.201Z,9.116
2023-02-17T11:53:34.768Z,9.125
2023-02-17T11:54:35.138Z,9.125
2023-02-17T11:55:34.705Z,9.125
2023-02-17T11:56:35.151Z,9.125
2023-02-17T11:57:34.174Z,9.125
2023-02-17T11:58:34.693Z,9.125
2023-02-17T11:59:34.578Z,9.125
2023-02-17T12:00:35.948Z,9.125
2023-02-17T12:01:35.857Z,9.125
2023-02-17T12:02:37.241Z,9.125
2023-02-17T12:03:36.907Z,9.125
2023-02-17T12:04:35.248Z,9.151
2023-02-17T12:05:35.259Z,9.125
2023-02-17T12:06:35.291Z,9.125
2023-02-17T12:07:34.708Z,9.135
2023-02-17T12:08:34.717Z,9.187
2023-02-17T12:09:39.866Z,9.135
2023-02-17T12:10:34.381Z,9.145
2023-02-17T12:11:39.395Z,9.187
2023-02-17T12:12:34.283Z,9.187
2023-02-17T12:13:39.546Z,9.187
2023-02-17T12:14:34.621Z,9.187
2023-02-17T12:15:40.414Z,9.187
2023-02-17T12:16:34.410Z,9.187
2023-02-17T12:17:40.438Z,9.187
2023-02-17T12:18:34.721Z,7.599
2023-02-17T12:19:36.921Z,9.187
2023-02-17T12:20:34.740Z,9.187
2023-02-17T12:21:43.031Z,9.187
2023-02-17T12:22:33.586Z,9.187
2023-02-17T12:23:35.280Z,9.187
2023-02-17T12:24:35.364Z,9.187
2023-02-17T12:25:34.573Z,9.187
2023-02-17T12:26:34.508Z,9.187
2023-02-17T12:27:34.208Z,9.187
2023-02-17T12:28:34.479Z,9.187
2023-02-17T12:29:34.602Z,9.197
2023-02-17T12:30:35.624Z,9.25
2023-02-17T12:31:49.438Z,9.197
2023-02-17T12:32:37.490Z,9.229
2023-02-17T12:33:34.355Z,9.25
2023-02-17T12:34:34.577Z,9.25
2023-02-17T12:35:34.884Z,9.25
2023-02-17T12:36:34.589Z,9.25
2023-02-17T12:37:34.421Z,9.25
2023-02-17T12:38:34.776Z,9.25
2023-02-17T12:39:34.719Z,9.25
2023-02-17T12:40:35.100Z,9.25
2023-02-17T12:41:34.265Z,9.25
2023-02-17T12:42:34.576Z,9.25
2023-02-17T12:43:35.083Z,9.25
2023-02-17T12:44:34.579Z,9.25
2023-02-17T12:45:35.445Z,9.25
2023-02-17T12:46:34.834Z,9.25
2023-02-17T12:47:34.797Z,9.25
2023-02-17T12:48:34.414Z,9.25
2023-02-17T12:49:39.333Z,9.25
2023-02-17T12:50:34.608Z,9.25
2023-02-17T12:51:35.386Z,9.25
2023-02-17T12:52:35.398Z,9.25
2023-02-17T12:53:34.565Z,9.25
2023-02-17T12:54:34.651Z,9.25
2023-02-17T12:55:34.410Z,9.260
2023-02-17T12:56:34.968Z,9.25
2023-02-17T12:57:34.144Z,9.260
2023-02-17T12:58:35.437Z,9.260
2023-02-17T12:59:35.222Z,9.270
2023-02-17T13:00:36.065Z,9.312
2023-02-17T13:01:35.477Z,9.312
2023-02-17T13:02:34.397Z,9.312
2023-02-17T13:03:35.476Z,9.312
2023-02-17T13:04:35.213Z,9.312
2023-02-17T13:05:35.244Z,9.312
2023-02-17T13:06:34.249Z,9.312
2023-02-17T13:07:34.765Z,9.312
2023-02-17T13:08:35.133Z,9.312